Terminal Aerodrome Forecast
Issued by NWS

Home | Current Version | Previous Version | Graphics & Text | Print | Product List | Glossary On
Versions: 1 2 3 4 5 6 7 8 9 10 11 12 13 14 15 16 17 18 19 20 21 22
610
FTUS43 KGRB 041131
TAFMTW
TAF
KMTW 041131Z 0412/0512 19004KT P6SM BKN045 OVC050
     FM041400 16004KT P6SM -SN OVC015
      TEMPO 0415/0416 3SM -SN OVC010
     FM041600 17006KT 1SM -SN OVC006
      TEMPO 0419/0423 3/4SM -SN OVC003
     FM050200 20006KT 3SM -SN OVC009
     FM050300 23007KT P6SM BKN012
     FM050600 25007KT P6SM BKN030=

USA.gov is the U.S. government's official web portal to all federal, state and local government web resources and services.